sensor_id;sensor_type;location;lat;lon;timestamp;P1;durP1;ratioP1;P2;durP2;ratioP2
54406;SDS011;40313;50.308;30.374;2023-04-03T00:00:38;42.42;;;19.65;;
54406;SDS011;40313;50.308;30.374;2023-04-03T00:03:04;42.95;;;21.80;;
54406;SDS011;40313;50.308;30.374;2023-04-03T00:05:30;41.58;;;21.48;;
54406;SDS011;40313;50.308;30.374;2023-04-03T00:07:57;38.20;;;21.67;;
54406;SDS011;40313;50.308;30.374;2023-04-03T00:10:24;45.47;;;23.50;;
54406;SDS011;40313;50.308;30.374;2023-04-03T00:12:50;49.22;;;23.35;;
54406;SDS011;40313;50.308;30.374;2023-04-03T00:15:18;45.80;;;22.58;;
54406;SDS011;40313;50.308;30.374;2023-04-03T00:17:44;41.42;;;23.88;;
54406;SDS011;40313;50.308;30.374;2023-04-03T00:20:11;38.53;;;21.25;;
54406;SDS011;40313;50.308;30.374;2023-04-03T00:22:38;32.40;;;20.58;;
54406;SDS011;40313;50.308;30.374;2023-04-03T00:25:04;40.08;;;22.92;;
54406;SDS011;40313;50.308;30.374;2023-04-03T00:27:31;27.13;;;19.13;;
54406;SDS011;40313;50.308;30.374;2023-04-03T00:29:57;33.10;;;21.20;;
54406;SDS011;40313;50.308;30.374;2023-04-03T00:32:25;32.83;;;18.95;;
54406;SDS011;40313;50.308;30.374;2023-04-03T00:34:51;31.65;;;19.65;;
54406;SDS011;40313;50.308;30.374;2023-04-03T00:37:17;25.55;;;18.17;;
54406;SDS011;40313;50.308;30.374;2023-04-03T00:39:44;22.55;;;18.75;;
54406;SDS011;40313;50.308;30.374;2023-04-03T00:42:10;25.17;;;17.38;;
54406;SDS011;40313;50.308;30.374;2023-04-03T00:47:22;27.90;;;19.83;;
54406;SDS011;40313;50.308;30.374;2023-04-03T00:49:50;27.38;;;21.08;;
54406;SDS011;40313;50.308;30.374;2023-04-03T00:52:17;23.67;;;18.17;;
54406;SDS011;40313;50.308;30.374;2023-04-03T00:54:45;28.20;;;20.52;;
54406;SDS011;40313;50.308;30.374;2023-04-03T00:57:13;32.30;;;22.42;;
54406;SDS011;40313;50.308;30.374;2023-04-03T00:59:41;22.17;;;18.15;;
54406;SDS011;40313;50.308;30.374;2023-04-03T01:02:09;31.35;;;20.73;;
54406;SDS011;40313;50.308;30.374;2023-04-03T01:04:36;29.67;;;21.58;;
54406;SDS011;40313;50.308;30.374;2023-04-03T01:07:04;23.40;;;20.67;;
54406;SDS011;40313;50.308;30.374;2023-04-03T01:09:32;29.17;;;23.13;;
54406;SDS011;40313;50.308;30.374;2023-04-03T01:12:12;26.20;;;22.23;;
54406;SDS011;40313;50.308;30.374;2023-04-03T01:14:38;36.42;;;25.23;;
54406;SDS011;40313;50.308;30.374;2023-04-03T01:19:46;51.10;;;29.08;;
54406;SDS011;40313;50.308;30.374;2023-04-03T01:22:18;53.30;;;30.90;;
54406;SDS011;40313;50.308;30.374;2023-04-03T01:24:45;47.53;;;30.33;;
54406;SDS011;40313;50.308;30.374;2023-04-03T01:27:12;49.13;;;29.60;;
54406;SDS011;40313;50.308;30.374;2023-04-03T01:29:38;39.88;;;29.65;;
54406;SDS011;40313;50.308;30.374;2023-04-03T01:32:07;41.55;;;31.40;;
54406;SDS011;40313;50.308;30.374;2023-04-03T01:34:33;48.33;;;33.38;;
54406;SDS011;40313;50.308;30.374;2023-04-03T01:37:00;52.88;;;32.15;;
54406;SDS011;40313;50.308;30.374;2023-04-03T01:39:26;55.63;;;35.03;;
54406;SDS011;40313;50.308;30.374;2023-04-03T01:41:52;65.78;;;39.05;;
54406;SDS011;40313;50.308;30.374;2023-04-03T01:44:19;61.60;;;37.05;;
54406;SDS011;40313;50.308;30.374;2023-04-03T01:46:45;40.65;;;28.60;;
54406;SDS011;40313;50.308;30.374;2023-04-03T01:49:13;39.17;;;28.52;;
54406;SDS011;40313;50.308;30.374;2023-04-03T01:51:39;49.35;;;32.30;;
54406;SDS011;40313;50.308;30.374;2023-04-03T01:54:06;41.38;;;27.40;;
54406;SDS011;40313;50.308;30.374;2023-04-03T01:56:32;35.83;;;24.83;;
54406;SDS011;40313;50.308;30.374;2023-04-03T01:58:58;31.83;;;25.38;;
54406;SDS011;40313;50.308;30.374;2023-04-03T02:01:25;26.73;;;21.52;;
54406;SDS011;40313;50.308;30.374;2023-04-03T02:03:52;20.23;;;16.95;;
54406;SDS011;40313;50.308;30.374;2023-04-03T02:06:20;22.13;;;19.30;;
54406;SDS011;40313;50.308;30.374;2023-04-03T02:08:46;31.50;;;22.98;;
54406;SDS011;40313;50.308;30.374;2023-04-03T02:11:12;24.65;;;20.42;;
54406;SDS011;40313;50.308;30.374;2023-04-03T02:13:39;33.67;;;23.00;;
54406;SDS011;40313;50.308;30.374;2023-04-03T02:16:06;18.33;;;16.50;;
54406;SDS011;40313;50.308;30.374;2023-04-03T02:18:32;16.75;;;15.38;;
54406;SDS011;40313;50.308;30.374;2023-04-03T02:20:58;19.38;;;17.38;;
54406;SDS011;40313;50.308;30.374;2023-04-03T02:23:26;21.42;;;18.25;;
54406;SDS011;40313;50.308;30.374;2023-04-03T02:25:52;29.25;;;15.45;;
54406;SDS011;40313;50.308;30.374;2023-04-03T02:28:19;21.90;;;16.83;;
54406;SDS011;40313;50.308;30.374;2023-04-03T02:30:45;18.48;;;12.82;;
54406;SDS011;40313;50.308;30.374;2023-04-03T02:33:12;21.35;;;17.00;;
54406;SDS011;40313;50.308;30.374;2023-04-03T02:35:38;21.55;;;18.60;;
54406;SDS011;40313;50.308;30.374;2023-04-03T02:38:05;16.60;;;14.63;;
54406;SDS011;40313;50.308;30.374;2023-04-03T02:40:32;22.65;;;16.02;;
54406;SDS011;40313;50.308;30.374;2023-04-03T02:42:58;25.55;;;15.20;;
54406;SDS011;40313;50.308;30.374;2023-04-03T02:45:25;26.27;;;16.45;;
54406;SDS011;40313;50.308;30.374;2023-04-03T02:47:51;21.27;;;16.52;;
54406;SDS011;40313;50.308;30.374;2023-04-03T02:50:17;21.70;;;18.17;;
54406;SDS011;40313;50.308;30.374;2023-04-03T02:52:44;18.17;;;14.70;;
54406;SDS011;40313;50.308;30.374;2023-04-03T02:55:12;20.45;;;15.35;;
54406;SDS011;40313;50.308;30.374;2023-04-03T02:57:40;26.58;;;18.45;;
54406;SDS011;40313;50.308;30.374;2023-04-03T03:00:07;21.98;;;15.45;;
54406;SDS011;40313;50.308;30.374;2023-04-03T03:02:34;15.68;;;13.18;;
54406;SDS011;40313;50.308;30.374;2023-04-03T03:05:01;16.75;;;15.15;;
54406;SDS011;40313;50.308;30.374;2023-04-03T03:07:27;22.75;;;16.27;;
54406;SDS011;40313;50.308;30.374;2023-04-03T03:09:53;29.40;;;19.25;;
54406;SDS011;40313;50.308;30.374;2023-04-03T03:12:20;30.20;;;18.38;;
54406;SDS011;40313;50.308;30.374;2023-04-03T03:14:49;37.05;;;20.88;;
54406;SDS011;40313;50.308;30.374;2023-04-03T03:17:16;33.53;;;18.23;;
54406;SDS011;40313;50.308;30.374;2023-04-03T03:19:42;33.55;;;17.58;;
54406;SDS011;40313;50.308;30.374;2023-04-03T03:22:10;22.10;;;15.35;;
54406;SDS011;40313;50.308;30.374;2023-04-03T03:24:36;22.63;;;14.45;;
54406;SDS011;40313;50.308;30.374;2023-04-03T03:27:03;24.55;;;16.88;;
54406;SDS011;40313;50.308;30.374;2023-04-03T03:29:29;33.55;;;18.55;;
54406;SDS011;40313;50.308;30.374;2023-04-03T03:31:57;30.67;;;19.95;;
54406;SDS011;40313;50.308;30.374;2023-04-03T03:34:23;30.25;;;19.95;;
54406;SDS011;40313;50.308;30.374;2023-04-03T03:36:50;33.10;;;21.38;;
54406;SDS011;40313;50.308;30.374;2023-04-03T03:39:16;28.95;;;21.95;;
54406;SDS011;40313;50.308;30.374;2023-04-03T03:41:42;24.00;;;19.42;;
54406;SDS011;40313;50.308;30.374;2023-04-03T03:44:09;22.73;;;15.80;;
54406;SDS011;40313;50.308;30.374;2023-04-03T03:46:35;30.48;;;19.60;;
54406;SDS011;40313;50.308;30.374;2023-04-03T03:49:03;26.83;;;19.38;;
54406;SDS011;40313;50.308;30.374;2023-04-03T03:51:29;49.25;;;23.38;;
54406;SDS011;40313;50.308;30.374;2023-04-03T03:53:55;65.85;;;29.50;;
54406;SDS011;40313;50.308;30.374;2023-04-03T03:56:22;59.17;;;28.35;;
54406;SDS011;40313;50.308;30.374;2023-04-03T03:58:48;55.03;;;23.55;;
54406;SDS011;40313;50.308;30.374;2023-04-03T04:01:15;59.00;;;24.83;;
54406;SDS011;40313;50.308;30.374;2023-04-03T04:03:41;28.00;;;18.63;;
54406;SDS011;40313;50.308;30.374;2023-04-03T04:06:09;39.42;;;20.48;;
54406;SDS011;40313;50.308;30.374;2023-04-03T04:08:35;42.58;;;23.40;;
54406;SDS011;40313;50.308;30.374;2023-04-03T04:11:02;51.75;;;24.70;;
54406;SDS011;40313;50.308;30.374;2023-04-03T04:13:28;37.70;;;20.17;;
54406;SDS011;40313;50.308;30.374;2023-04-03T04:15:54;45.63;;;22.05;;
54406;SDS011;40313;50.308;30.374;2023-04-03T04:18:20;38.88;;;19.45;;
54406;SDS011;40313;50.308;30.374;2023-04-03T04:20:47;32.22;;;18.88;;
54406;SDS011;40313;50.308;30.374;2023-04-03T04:23:15;15.65;;;14.00;;
54406;SDS011;40313;50.308;30.374;2023-04-03T04:25:43;18.98;;;16.40;;
54406;SDS011;40313;50.308;30.374;2023-04-03T04:28:10;32.10;;;20.40;;
54406;SDS011;40313;50.308;30.374;2023-04-03T04:30:36;36.22;;;19.00;;
54406;SDS011;40313;50.308;30.374;2023-04-03T04:33:02;24.17;;;17.08;;
54406;SDS011;40313;50.308;30.374;2023-04-03T04:35:29;29.80;;;17.08;;
54406;SDS011;40313;50.308;30.374;2023-04-03T04:37:55;23.88;;;17.65;;
54406;SDS011;40313;50.308;30.374;2023-04-03T04:40:23;34.60;;;18.02;;
54406;SDS011;40313;50.308;30.374;2023-04-03T04:42:49;22.88;;;15.70;;
54406;SDS011;40313;50.308;30.374;2023-04-03T04:45:15;27.02;;;17.42;;
54406;SDS011;40313;50.308;30.374;2023-04-03T04:47:42;16.25;;;12.45;;
54406;SDS011;40313;50.308;30.374;2023-04-03T04:50:09;20.63;;;15.85;;
54406;SDS011;40313;50.308;30.374;2023-04-03T04:52:35;30.63;;;18.20;;
54406;SDS011;40313;50.308;30.374;2023-04-03T04:55:01;31.52;;;19.50;;
54406;SDS011;40313;50.308;30.374;2023-04-03T04:57:29;24.42;;;17.23;;
54406;SDS011;40313;50.308;30.374;2023-04-03T04:59:55;27.15;;;17.10;;
54406;SDS011;40313;50.308;30.374;2023-04-03T05:02:22;16.25;;;14.18;;
54406;SDS011;40313;50.308;30.374;2023-04-03T05:04:48;28.45;;;19.38;;
54406;SDS011;40313;50.308;30.374;2023-04-03T05:07:16;22.77;;;14.75;;
54406;SDS011;40313;50.308;30.374;2023-04-03T05:09:43;25.92;;;17.63;;
54406;SDS011;40313;50.308;30.374;2023-04-03T05:12:09;19.60;;;16.75;;
54406;SDS011;40313;50.308;30.374;2023-04-03T05:14:37;28.63;;;14.00;;
54406;SDS011;40313;50.308;30.374;2023-04-03T05:17:03;26.35;;;17.42;;
54406;SDS011;40313;50.308;30.374;2023-04-03T05:19:29;22.83;;;17.10;;
54406;SDS011;40313;50.308;30.374;2023-04-03T05:21:56;35.13;;;18.17;;
54406;SDS011;40313;50.308;30.374;2023-04-03T05:24:22;33.92;;;20.13;;
54406;SDS011;40313;50.308;30.374;2023-04-03T05:26:48;25.73;;;15.18;;
54406;SDS011;40313;50.308;30.374;2023-04-03T05:29:15;16.27;;;13.50;;
54406;SDS011;40313;50.308;30.374;2023-04-03T05:31:42;24.52;;;16.50;;
54406;SDS011;40313;50.308;30.374;2023-04-03T05:34:09;28.08;;;18.85;;
54406;SDS011;40313;50.308;30.374;2023-04-03T05:36:36;23.67;;;17.10;;
54406;SDS011;40313;50.308;30.374;2023-04-03T05:39:02;25.02;;;18.13;;
54406;SDS011;40313;50.308;30.374;2023-04-03T05:41:28;18.88;;;15.85;;
54406;SDS011;40313;50.308;30.374;2023-04-03T05:43:55;26.98;;;17.90;;
54406;SDS011;40313;50.308;30.374;2023-04-03T05:46:21;27.38;;;16.98;;
54406;SDS011;40313;50.308;30.374;2023-04-03T05:48:49;20.60;;;17.23;;
54406;SDS011;40313;50.308;30.374;2023-04-03T05:51:17;33.33;;;19.02;;
54406;SDS011;40313;50.308;30.374;2023-04-03T05:53:44;29.58;;;16.52;;
54406;SDS011;40313;50.308;30.374;2023-04-03T05:56:10;23.88;;;17.40;;
54406;SDS011;40313;50.308;30.374;2023-04-03T05:58:37;24.35;;;18.33;;
54406;SDS011;40313;50.308;30.374;2023-04-03T06:01:03;36.67;;;17.77;;
54406;SDS011;40313;50.308;30.374;2023-04-03T06:03:30;21.20;;;15.93;;
54406;SDS011;40313;50.308;30.374;2023-04-03T06:05:58;34.38;;;20.33;;
54406;SDS011;40313;50.308;30.374;2023-04-03T06:08:24;32.08;;;21.60;;
54406;SDS011;40313;50.308;30.374;2023-04-03T06:10:50;47.65;;;22.88;;
54406;SDS011;40313;50.308;30.374;2023-04-03T06:13:17;20.45;;;15.27;;
54406;SDS011;40313;50.308;30.374;2023-04-03T06:15:43;36.22;;;22.15;;
54406;SDS011;40313;50.308;30.374;2023-04-03T06:18:10;21.90;;;16.02;;
54406;SDS011;40313;50.308;30.374;2023-04-03T06:20:36;27.77;;;14.65;;
54406;SDS011;40313;50.308;30.374;2023-04-03T06:23:04;57.75;;;25.92;;
54406;SDS011;40313;50.308;30.374;2023-04-03T06:25:30;51.47;;;24.27;;
54406;SDS011;40313;50.308;30.374;2023-04-03T06:27:58;46.05;;;20.63;;
54406;SDS011;40313;50.308;30.374;2023-04-03T06:30:25;154.23;;;61.55;;
54406;SDS011;40313;50.308;30.374;2023-04-03T06:32:52;41.92;;;20.23;;
54406;SDS011;40313;50.308;30.374;2023-04-03T06:35:18;37.90;;;21.30;;
54406;SDS011;40313;50.308;30.374;2023-04-03T06:37:45;246.73;;;92.00;;
54406;SDS011;40313;50.308;30.374;2023-04-03T06:40:15;207.55;;;72.78;;
54406;SDS011;40313;50.308;30.374;2023-04-03T06:42:43;112.68;;;48.17;;
54406;SDS011;40313;50.308;30.374;2023-04-03T06:45:10;90.03;;;38.40;;
54406;SDS011;40313;50.308;30.374;2023-04-03T06:47:37;179.77;;;66.30;;
54406;SDS011;40313;50.308;30.374;2023-04-03T06:50:04;46.17;;;24.27;;
54406;SDS011;40313;50.308;30.374;2023-04-03T06:52:31;43.33;;;24.67;;
54406;SDS011;40313;50.308;30.374;2023-04-03T06:54:57;35.85;;;21.00;;
54406;SDS011;40313;50.308;30.374;2023-04-03T06:57:26;71.13;;;39.55;;
54406;SDS011;40313;50.308;30.374;2023-04-03T06:59:52;74.70;;;43.90;;
54406;SDS011;40313;50.308;30.374;2023-04-03T07:02:18;42.30;;;26.85;;
54406;SDS011;40313;50.308;30.374;2023-04-03T07:04:45;39.80;;;27.52;;
54406;SDS011;40313;50.308;30.374;2023-04-03T07:07:12;52.58;;;32.05;;
54406;SDS011;40313;50.308;30.374;2023-04-03T07:09:38;46.65;;;31.30;;
54406;SDS011;40313;50.308;30.374;2023-04-03T07:12:04;43.20;;;24.02;;
54406;SDS011;40313;50.308;30.374;2023-04-03T07:14:32;37.45;;;23.98;;
54406;SDS011;40313;50.308;30.374;2023-04-03T07:16:58;21.95;;;16.88;;
54406;SDS011;40313;50.308;30.374;2023-04-03T07:19:25;29.83;;;20.73;;
54406;SDS011;40313;50.308;30.374;2023-04-03T07:21:53;29.63;;;18.98;;
54406;SDS011;40313;50.308;30.374;2023-04-03T07:24:19;19.98;;;17.60;;
54406;SDS011;40313;50.308;30.374;2023-04-03T07:26:48;26.98;;;18.48;;
54406;SDS011;40313;50.308;30.374;2023-04-03T07:29:15;19.63;;;17.02;;
54406;SDS011;40313;50.308;30.374;2023-04-03T07:31:42;32.70;;;21.55;;
54406;SDS011;40313;50.308;30.374;2023-04-03T07:34:09;28.77;;;18.00;;
54406;SDS011;40313;50.308;30.374;2023-04-03T07:36:36;21.45;;;16.30;;
54406;SDS011;40313;50.308;30.374;2023-04-03T07:39:02;62.55;;;34.40;;
54406;SDS011;40313;50.308;30.374;2023-04-03T07:41:29;30.55;;;20.98;;
54406;SDS011;40313;50.308;30.374;2023-04-03T07:43:55;28.58;;;19.85;;
54406;SDS011;40313;50.308;30.374;2023-04-03T07:46:21;36.70;;;20.98;;
54406;SDS011;40313;50.308;30.374;2023-04-03T07:48:49;40.70;;;25.50;;
54406;SDS011;40313;50.308;30.374;2023-04-03T07:51:15;26.48;;;18.25;;
54406;SDS011;40313;50.308;30.374;2023-04-03T07:53:42;30.20;;;20.13;;
54406;SDS011;40313;50.308;30.374;2023-04-03T07:56:08;44.00;;;22.05;;
54406;SDS011;40313;50.308;30.374;2023-04-03T07:58:35;33.17;;;19.38;;
54406;SDS011;40313;50.308;30.374;2023-04-03T08:01:02;45.33;;;23.80;;
54406;SDS011;40313;50.308;30.374;2023-04-03T08:03:28;42.63;;;23.55;;
54406;SDS011;40313;50.308;30.374;2023-04-03T08:06:00;43.03;;;19.30;;
54406;SDS011;40313;50.308;30.374;2023-04-03T08:08:27;24.52;;;16.20;;
54406;SDS011;40313;50.308;30.374;2023-04-03T08:10:54;35.30;;;21.02;;
54406;SDS011;40313;50.308;30.374;2023-04-03T08:13:21;38.55;;;23.30;;
54406;SDS011;40313;50.308;30.374;2023-04-03T08:15:47;37.50;;;23.23;;
54406;SDS011;40313;50.308;30.374;2023-04-03T08:18:14;35.17;;;21.08;;
54406;SDS011;40313;50.308;30.374;2023-04-03T08:20:41;31.20;;;22.27;;
54406;SDS011;40313;50.308;30.374;2023-04-03T08:23:08;29.05;;;19.75;;
54406;SDS011;40313;50.308;30.374;2023-04-03T08:25:37;33.53;;;25.67;;
54406;SDS011;40313;50.308;30.374;2023-04-03T08:28:03;28.98;;;18.98;;
54406;SDS011;40313;50.308;30.374;2023-04-03T08:30:30;24.08;;;18.13;;
54406;SDS011;40313;50.308;30.374;2023-04-03T08:32:56;26.70;;;17.13;;
54406;SDS011;40313;50.308;30.374;2023-04-03T08:35:22;22.20;;;18.75;;
54406;SDS011;40313;50.308;30.374;2023-04-03T08:37:49;27.15;;;18.48;;
54406;SDS011;40313;50.308;30.374;2023-04-03T08:40:16;39.00;;;20.77;;
54406;SDS011;40313;50.308;30.374;2023-04-03T08:42:48;46.42;;;25.48;;
54406;SDS011;40313;50.308;30.374;2023-04-03T08:45:18;17.55;;;14.18;;
54406;SDS011;40313;50.308;30.374;2023-04-03T08:47:49;32.55;;;20.45;;
54406;SDS011;40313;50.308;30.374;2023-04-03T08:50:18;22.98;;;13.95;;
54406;SDS011;40313;50.308;30.374;2023-04-03T08:52:46;15.07;;;13.60;;
54406;SDS011;40313;50.308;30.374;2023-04-03T08:55:19;19.13;;;13.43;;
54406;SDS011;40313;50.308;30.374;2023-04-03T08:57:48;19.25;;;16.30;;
54406;SDS011;40313;50.308;30.374;2023-04-03T09:00:16;26.23;;;16.10;;
54406;SDS011;40313;50.308;30.374;2023-04-03T09:02:44;23.88;;;15.63;;
54406;SDS011;40313;50.308;30.374;2023-04-03T09:05:12;32.97;;;20.27;;
54406;SDS011;40313;50.308;30.374;2023-04-03T09:07:42;28.95;;;17.25;;
54406;SDS011;40313;50.308;30.374;2023-04-03T09:10:09;21.38;;;16.00;;
54406;SDS011;40313;50.308;30.374;2023-04-03T09:12:38;20.17;;;13.52;;
54406;SDS011;40313;50.308;30.374;2023-04-03T09:15:08;27.83;;;18.02;;
54406;SDS011;40313;50.308;30.374;2023-04-03T09:17:39;14.35;;;10.82;;
54406;SDS011;40313;50.308;30.374;2023-04-03T09:20:11;20.02;;;11.48;;
54406;SDS011;40313;50.308;30.374;2023-04-03T09:22:41;13.55;;;12.23;;
54406;SDS011;40313;50.308;30.374;2023-04-03T09:25:10;21.05;;;15.63;;
54406;SDS011;40313;50.308;30.374;2023-04-03T09:27:40;44.80;;;22.17;;
54406;SDS011;40313;50.308;30.374;2023-04-03T09:30:11;25.90;;;18.20;;
54406;SDS011;40313;50.308;30.374;2023-04-03T09:32:38;13.00;;;11.75;;
54406;SDS011;40313;50.308;30.374;2023-04-03T09:35:09;27.00;;;14.90;;
54406;SDS011;40313;50.308;30.374;2023-04-03T09:37:38;9.60;;;8.85;;
54406;SDS011;40313;50.308;30.374;2023-04-03T09:40:05;11.05;;;10.15;;
54406;SDS011;40313;50.308;30.374;2023-04-03T09:42:31;14.60;;;11.18;;
54406;SDS011;40313;50.308;30.374;2023-04-03T09:45:00;18.75;;;11.30;;
54406;SDS011;40313;50.308;30.374;2023-04-03T09:47:27;29.90;;;16.65;;
54406;SDS011;40313;50.308;30.374;2023-04-03T09:50:08;15.32;;;12.18;;
54406;SDS011;40313;50.308;30.374;2023-04-03T09:52:35;17.45;;;10.90;;
54406;SDS011;40313;50.308;30.374;2023-04-03T09:55:06;14.63;;;9.15;;
54406;SDS011;40313;50.308;30.374;2023-04-03T09:57:33;19.10;;;11.65;;
54406;SDS011;40313;50.308;30.374;2023-04-03T10:00:01;19.83;;;12.23;;
54406;SDS011;40313;50.308;30.374;2023-04-03T10:02:34;10.07;;;9.25;;
54406;SDS011;40313;50.308;30.374;2023-04-03T10:05:01;8.73;;;8.25;;
54406;SDS011;40313;50.308;30.374;2023-04-03T10:07:29;17.67;;;12.15;;
54406;SDS011;40313;50.308;30.374;2023-04-03T10:09:56;9.43;;;8.45;;
54406;SDS011;40313;50.308;30.374;2023-04-03T10:12:23;5.32;;;4.65;;
54406;SDS011;40313;50.308;30.374;2023-04-03T10:14:53;21.42;;;10.40;;
54406;SDS011;40313;50.308;30.374;2023-04-03T10:17:23;13.70;;;11.55;;
54406;SDS011;40313;50.308;30.374;2023-04-03T10:19:55;9.07;;;8.40;;
54406;SDS011;40313;50.308;30.374;2023-04-03T10:22:24;9.55;;;8.85;;
54406;SDS011;40313;50.308;30.374;2023-04-03T10:24:58;9.30;;;8.33;;
54406;SDS011;40313;50.308;30.374;2023-04-03T10:27:30;13.60;;;9.00;;
54406;SDS011;40313;50.308;30.374;2023-04-03T10:29:59;12.60;;;10.70;;
54406;SDS011;40313;50.308;30.374;2023-04-03T10:35:16;8.73;;;5.77;;
54406;SDS011;40313;50.308;30.374;2023-04-03T10:37:48;12.68;;;11.27;;
54406;SDS011;40313;50.308;30.374;2023-04-03T10:40:20;10.50;;;9.50;;
54406;SDS011;40313;50.308;30.374;2023-04-03T10:42:49;15.70;;;11.13;;
54406;SDS011;40313;50.308;30.374;2023-04-03T10:45:21;16.00;;;10.57;;
54406;SDS011;40313;50.308;30.374;2023-04-03T10:47:52;18.88;;;7.82;;
54406;SDS011;40313;50.308;30.374;2023-04-03T10:50:25;7.88;;;7.10;;
54406;SDS011;40313;50.308;30.374;2023-04-03T10:52:54;9.88;;;7.93;;
54406;SDS011;40313;50.308;30.374;2023-04-03T10:55:24;8.02;;;6.80;;
54406;SDS011;40313;50.308;30.374;2023-04-03T10:57:56;11.85;;;8.85;;
54406;SDS011;40313;50.308;30.374;2023-04-03T11:00:34;14.40;;;8.40;;
54406;SDS011;40313;50.308;30.374;2023-04-03T11:03:03;11.47;;;9.30;;
54406;SDS011;40313;50.308;30.374;2023-04-03T11:05:34;11.15;;;8.65;;
54406;SDS011;40313;50.308;30.374;2023-04-03T11:08:02;10.82;;;9.43;;
54406;SDS011;40313;50.308;30.374;2023-04-03T11:10:35;11.88;;;10.85;;
54406;SDS011;40313;50.308;30.374;2023-04-03T11:13:02;10.50;;;9.65;;
54406;SDS011;40313;50.308;30.374;2023-04-03T11:15:33;14.35;;;10.25;;
54406;SDS011;40313;50.308;30.374;2023-04-03T11:18:00;9.90;;;9.10;;
54406;SDS011;40313;50.308;30.374;2023-04-03T11:20:28;10.60;;;9.07;;
54406;SDS011;40313;50.308;30.374;2023-04-03T11:23:00;8.13;;;7.43;;
54406;SDS011;40313;50.308;30.374;2023-04-03T11:25:29;6.38;;;5.95;;
54406;SDS011;40313;50.308;30.374;2023-04-03T11:27:56;12.13;;;10.52;;
54406;SDS011;40313;50.308;30.374;2023-04-03T11:30:23;35.65;;;16.15;;
54406;SDS011;40313;50.308;30.374;2023-04-03T11:35:41;10.88;;;9.23;;
54406;SDS011;40313;50.308;30.374;2023-04-03T11:38:13;8.30;;;7.53;;
54406;SDS011;40313;50.308;30.374;2023-04-03T11:43:17;8.65;;;7.70;;
54406;SDS011;40313;50.308;30.374;2023-04-03T11:45:50;12.52;;;10.20;;
54406;SDS011;40313;50.308;30.374;2023-04-03T11:53:35;9.55;;;8.70;;
54406;SDS011;40313;50.308;30.374;2023-04-03T11:56:03;9.77;;;8.88;;
54406;SDS011;40313;50.308;30.374;2023-04-03T11:58:30;7.25;;;6.53;;
54406;SDS011;40313;50.308;30.374;2023-04-03T12:09:22;6.30;;;4.75;;
54406;SDS011;40313;50.308;30.374;2023-04-03T12:11:49;4.25;;;3.95;;
54406;SDS011;40313;50.308;30.374;2023-04-03T12:14:16;7.22;;;4.43;;
54406;SDS011;40313;50.308;30.374;2023-04-03T12:16:43;8.40;;;4.15;;
54406;SDS011;40313;50.308;30.374;2023-04-03T12:22:09;11.60;;;3.13;;
54406;SDS011;40313;50.308;30.374;2023-04-03T12:24:37;7.07;;;4.07;;
54406;SDS011;40313;50.308;30.374;2023-04-03T12:27:20;3.42;;;3.22;;
54406;SDS011;40313;50.308;30.374;2023-04-03T12:29:50;3.50;;;3.30;;
54406;SDS011;40313;50.308;30.374;2023-04-03T12:32:20;3.92;;;3.72;;
54406;SDS011;40313;50.308;30.374;2023-04-03T12:34:54;4.32;;;4.03;;
54406;SDS011;40313;50.308;30.374;2023-04-03T12:37:27;3.65;;;3.45;;
54406;SDS011;40313;50.308;30.374;2023-04-03T12:40:02;5.30;;;5.00;;
54406;SDS011;40313;50.308;30.374;2023-04-03T12:42:34;9.02;;;8.27;;
54406;SDS011;40313;50.308;30.374;2023-04-03T12:45:08;12.50;;;9.85;;
54406;SDS011;40313;50.308;30.374;2023-04-03T12:47:36;22.70;;;15.60;;
54406;SDS011;40313;50.308;30.374;2023-04-03T12:50:03;6.85;;;6.38;;
54406;SDS011;40313;50.308;30.374;2023-04-03T12:52:33;13.15;;;11.10;;
54406;SDS011;40313;50.308;30.374;2023-04-03T12:55:02;12.18;;;9.77;;
54406;SDS011;40313;50.308;30.374;2023-04-03T12:57:30;9.13;;;8.30;;
54406;SDS011;40313;50.308;30.374;2023-04-03T12:59:57;15.63;;;7.90;;
54406;SDS011;40313;50.308;30.374;2023-04-03T13:02:24;8.98;;;7.38;;
54406;SDS011;40313;50.308;30.374;2023-04-03T13:04:51;11.50;;;10.35;;
54406;SDS011;40313;50.308;30.374;2023-04-03T13:07:21;7.55;;;6.95;;
54406;SDS011;40313;50.308;30.374;2023-04-03T13:09:57;14.23;;;12.93;;
54406;SDS011;40313;50.308;30.374;2023-04-03T13:12:26;8.57;;;7.95;;
54406;SDS011;40313;50.308;30.374;2023-04-03T13:14:53;6.03;;;4.97;;
54406;SDS011;40313;50.308;30.374;2023-04-03T13:17:19;10.02;;;8.63;;
54406;SDS011;40313;50.308;30.374;2023-04-03T13:19:46;5.40;;;5.10;;
54406;SDS011;40313;50.308;30.374;2023-04-03T13:22:16;6.47;;;5.93;;
54406;SDS011;40313;50.308;30.374;2023-04-03T13:24:45;6.30;;;5.93;;
54406;SDS011;40313;50.308;30.374;2023-04-03T13:27:12;7.15;;;4.95;;
54406;SDS011;40313;50.308;30.374;2023-04-03T13:29:40;5.95;;;5.57;;
54406;SDS011;40313;50.308;30.374;2023-04-03T13:32:07;3.40;;;3.20;;
54406;SDS011;40313;50.308;30.374;2023-04-03T13:34:41;4.15;;;3.75;;
54406;SDS011;40313;50.308;30.374;2023-04-03T13:37:11;5.32;;;5.03;;
54406;SDS011;40313;50.308;30.374;2023-04-03T13:39:45;6.50;;;5.88;;
54406;SDS011;40313;50.308;30.374;2023-04-03T13:42:15;7.45;;;5.13;;
54406;SDS011;40313;50.308;30.374;2023-04-03T13:44:43;6.18;;;5.68;;
54406;SDS011;40313;50.308;30.374;2023-04-03T13:47:17;7.00;;;6.50;;
54406;SDS011;40313;50.308;30.374;2023-04-03T13:49:44;9.13;;;5.53;;
54406;SDS011;40313;50.308;30.374;2023-04-03T13:52:23;5.45;;;5.05;;
54406;SDS011;40313;50.308;30.374;2023-04-03T13:54:52;5.35;;;5.05;;
54406;SDS011;40313;50.308;30.374;2023-04-03T13:57:18;4.88;;;4.47;;
54406;SDS011;40313;50.308;30.374;2023-04-03T13:59:46;4.82;;;4.53;;
54406;SDS011;40313;50.308;30.374;2023-04-03T14:02:15;4.75;;;4.45;;
54406;SDS011;40313;50.308;30.374;2023-04-03T14:04:45;4.88;;;4.68;;
54406;SDS011;40313;50.308;30.374;2023-04-03T14:07:12;5.60;;;5.20;;
54406;SDS011;40313;50.308;30.374;2023-04-03T14:09:39;5.55;;;5.15;;
54406;SDS011;40313;50.308;30.374;2023-04-03T14:12:06;4.95;;;4.55;;
54406;SDS011;40313;50.308;30.374;2023-04-03T14:14:34;5.25;;;4.93;;
54406;SDS011;40313;50.308;30.374;2023-04-03T14:17:03;5.82;;;5.50;;
54406;SDS011;40313;50.308;30.374;2023-04-03T14:19:36;7.20;;;4.55;;
54406;SDS011;40313;50.308;30.374;2023-04-03T14:22:06;4.10;;;3.70;;
54406;SDS011;40313;50.308;30.374;2023-04-03T14:24:37;4.38;;;4.18;;
54406;SDS011;40313;50.308;30.374;2023-04-03T14:27:05;5.50;;;5.20;;
54406;SDS011;40313;50.308;30.374;2023-04-03T14:29:31;3.33;;;2.65;;
54406;SDS011;40313;50.308;30.374;2023-04-03T14:31:57;3.65;;;3.45;;
54406;SDS011;40313;50.308;30.374;2023-04-03T14:34:25;4.88;;;4.57;;
54406;SDS011;40313;50.308;30.374;2023-04-03T14:36:52;4.65;;;3.08;;
54406;SDS011;40313;50.308;30.374;2023-04-03T14:39:18;4.70;;;4.40;;
54406;SDS011;40313;50.308;30.374;2023-04-03T14:41:45;3.63;;;3.33;;
54406;SDS011;40313;50.308;30.374;2023-04-03T14:44:11;3.25;;;3.05;;
54406;SDS011;40313;50.308;30.374;2023-04-03T14:46:38;3.13;;;2.92;;